sensor_id;sensor_type;location;lat;lon;timestamp;temperature;humidity
73137;DHT22;67767;45.636;11.756;2023-05-29T00:01:27;22.00;61.00
73137;DHT22;67767;45.636;11.756;2023-05-29T00:03:53;21.80;61.30
73137;DHT22;67767;45.636;11.756;2023-05-29T00:06:21;21.90;61.20
73137;DHT22;67767;45.636;11.756;2023-05-29T00:08:47;21.80;61.50
73137;DHT22;67767;45.636;11.756;2023-05-29T00:11:13;21.80;61.60
73137;DHT22;67767;45.636;11.756;2023-05-29T00:13:38;21.80;61.70
73137;DHT22;67767;45.636;11.756;2023-05-29T00:16:04;21.70;61.90
73137;DHT22;67767;45.636;11.756;2023-05-29T00:18:30;21.70;62.00
73137;DHT22;67767;45.636;11.756;2023-05-29T00:20:55;21.70;62.50
73137;DHT22;67767;45.636;11.756;2023-05-29T00:23:21;21.60;62.60
73137;DHT22;67767;45.636;11.756;2023-05-29T00:25:47;21.50;62.90
73137;DHT22;67767;45.636;11.756;2023-05-29T00:28:13;21.50;62.30
73137;DHT22;67767;45.636;11.756;2023-05-29T00:30:39;21.50;62.30
73137;DHT22;67767;45.636;11.756;2023-05-29T00:33:05;21.50;62.20
73137;DHT22;67767;45.636;11.756;2023-05-29T00:35:31;21.50;62.20
73137;DHT22;67767;45.636;11.756;2023-05-29T00:37:57;21.50;62.10
73137;DHT22;67767;45.636;11.756;2023-05-29T00:40:25;21.60;62.00
73137;DHT22;67767;45.636;11.756;2023-05-29T00:42:51;21.50;62.00
73137;DHT22;67767;45.636;11.756;2023-05-29T00:45:16;21.40;62.30
73137;DHT22;67767;45.636;11.756;2023-05-29T00:47:42;21.50;62.30
73137;DHT22;67767;45.636;11.756;2023-05-29T00:50:10;21.50;61.70
73137;DHT22;67767;45.636;11.756;2023-05-29T00:52:37;21.60;61.80
73137;DHT22;67767;45.636;11.756;2023-05-29T00:55:04;21.50;61.20
73137;DHT22;67767;45.636;11.756;2023-05-29T00:57:31;21.60;61.40
73137;DHT22;67767;45.636;11.756;2023-05-29T00:59:58;21.60;61.40
73137;DHT22;67767;45.636;11.756;2023-05-29T01:02:24;21.50;62.10
73137;DHT22;67767;45.636;11.756;2023-05-29T01:04:50;21.50;61.10
73137;DHT22;67767;45.636;11.756;2023-05-29T01:07:20;21.40;61.20
73137;DHT22;67767;45.636;11.756;2023-05-29T01:09:45;21.40;61.30
73137;DHT22;67767;45.636;11.756;2023-05-29T01:12:29;21.40;61.70
73137;DHT22;67767;45.636;11.756;2023-05-29T01:20:42;21.30;62.10
73137;DHT22;67767;45.636;11.756;2023-05-29T01:23:53;21.20;61.90
73137;DHT22;67767;45.636;11.756;2023-05-29T01:29:24;21.10;63.10
73137;DHT22;67767;45.636;11.756;2023-05-29T01:31:52;21.10;62.80
73137;DHT22;67767;45.636;11.756;2023-05-29T01:34:19;21.10;63.20
73137;DHT22;67767;45.636;11.756;2023-05-29T01:36:45;21.00;63.10
73137;DHT22;67767;45.636;11.756;2023-05-29T01:39:12;21.00;63.20
73137;DHT22;67767;45.636;11.756;2023-05-29T01:41:39;21.00;63.60
73137;DHT22;67767;45.636;11.756;2023-05-29T01:44:08;20.90;65.00
73137;DHT22;67767;45.636;11.756;2023-05-29T01:46:38;20.90;64.40
73137;DHT22;67767;45.636;11.756;2023-05-29T01:49:05;20.90;65.80
73137;DHT22;67767;45.636;11.756;2023-05-29T01:51:31;20.90;66.10
73137;DHT22;67767;45.636;11.756;2023-05-29T01:53:59;20.90;66.20
73137;DHT22;67767;45.636;11.756;2023-05-29T01:56:27;20.80;66.50
73137;DHT22;67767;45.636;11.756;2023-05-29T01:58:55;20.90;66.30
73137;DHT22;67767;45.636;11.756;2023-05-29T02:01:22;20.80;66.60
73137;DHT22;67767;45.636;11.756;2023-05-29T02:03:47;20.80;66.50
73137;DHT22;67767;45.636;11.756;2023-05-29T02:06:13;20.70;66.70
73137;DHT22;67767;45.636;11.756;2023-05-29T02:08:39;20.60;67.00
73137;DHT22;67767;45.636;11.756;2023-05-29T02:11:05;20.70;66.80
73137;DHT22;67767;45.636;11.756;2023-05-29T02:13:31;20.60;66.90
73137;DHT22;67767;45.636;11.756;2023-05-29T02:15:57;20.60;67.20
73137;DHT22;67767;45.636;11.756;2023-05-29T02:18:22;20.60;67.30
73137;DHT22;67767;45.636;11.756;2023-05-29T02:20:48;20.70;67.60
73137;DHT22;67767;45.636;11.756;2023-05-29T02:23:14;20.60;67.60
73137;DHT22;67767;45.636;11.756;2023-05-29T02:25:41;20.70;67.70
73137;DHT22;67767;45.636;11.756;2023-05-29T02:28:07;20.80;67.50
73137;DHT22;67767;45.636;11.756;2023-05-29T02:30:32;20.70;69.80
73137;DHT22;67767;45.636;11.756;2023-05-29T02:32:58;20.70;68.00
73137;DHT22;67767;45.636;11.756;2023-05-29T02:35:24;20.70;69.90
73137;DHT22;67767;45.636;11.756;2023-05-29T02:37:50;20.70;69.90
73137;DHT22;67767;45.636;11.756;2023-05-29T02:40:16;20.70;69.90
73137;DHT22;67767;45.636;11.756;2023-05-29T02:42:42;20.70;69.90
73137;DHT22;67767;45.636;11.756;2023-05-29T02:45:08;20.70;70.10
73137;DHT22;67767;45.636;11.756;2023-05-29T02:47:34;20.70;70.00
73137;DHT22;67767;45.636;11.756;2023-05-29T02:50:00;20.70;70.00
73137;DHT22;67767;45.636;11.756;2023-05-29T02:52:26;20.70;70.00
73137;DHT22;67767;45.636;11.756;2023-05-29T02:54:52;20.70;70.00
73137;DHT22;67767;45.636;11.756;2023-05-29T02:57:20;20.70;70.10
73137;DHT22;67767;45.636;11.756;2023-05-29T02:59:45;20.70;70.10
73137;DHT22;67767;45.636;11.756;2023-05-29T03:02:11;20.70;70.10
73137;DHT22;67767;45.636;11.756;2023-05-29T03:04:37;20.60;70.10
73137;DHT22;67767;45.636;11.756;2023-05-29T03:07:03;20.70;70.10
73137;DHT22;67767;45.636;11.756;2023-05-29T03:09:28;20.70;70.20
73137;DHT22;67767;45.636;11.756;2023-05-29T03:11:54;20.60;70.20
73137;DHT22;67767;45.636;11.756;2023-05-29T03:14:20;20.70;70.10
73137;DHT22;67767;45.636;11.756;2023-05-29T03:16:47;20.70;70.00
73137;DHT22;67767;45.636;11.756;2023-05-29T03:19:13;20.70;70.00
73137;DHT22;67767;45.636;11.756;2023-05-29T03:21:39;20.70;69.90
73137;DHT22;67767;45.636;11.756;2023-05-29T03:24:05;20.60;70.20
73137;DHT22;67767;45.636;11.756;2023-05-29T03:26:31;20.60;70.30
73137;DHT22;67767;45.636;11.756;2023-05-29T03:28:56;20.60;70.20
73137;DHT22;67767;45.636;11.756;2023-05-29T03:31:22;20.60;70.00
73137;DHT22;67767;45.636;11.756;2023-05-29T03:33:48;20.60;70.20
73137;DHT22;67767;45.636;11.756;2023-05-29T03:36:14;20.60;70.30
73137;DHT22;67767;45.636;11.756;2023-05-29T03:38:42;20.60;70.10
73137;DHT22;67767;45.636;11.756;2023-05-29T03:41:08;20.70;70.20
73137;DHT22;67767;45.636;11.756;2023-05-29T03:43:34;20.70;70.10
73137;DHT22;67767;45.636;11.756;2023-05-29T03:46:00;20.60;70.10
73137;DHT22;67767;45.636;11.756;2023-05-29T03:48:25;20.60;70.10
73137;DHT22;67767;45.636;11.756;2023-05-29T03:50:51;20.70;70.20
73137;DHT22;67767;45.636;11.756;2023-05-29T03:53:17;20.70;70.00
73137;DHT22;67767;45.636;11.756;2023-05-29T03:55:42;20.70;70.00
73137;DHT22;67767;45.636;11.756;2023-05-29T03:58:08;20.80;69.90
73137;DHT22;67767;45.636;11.756;2023-05-29T04:00:33;20.60;69.90
73137;DHT22;67767;45.636;11.756;2023-05-29T04:02:59;20.80;70.10
73137;DHT22;67767;45.636;11.756;2023-05-29T04:05:25;20.80;70.00
73137;DHT22;67767;45.636;11.756;2023-05-29T04:07:51;20.80;69.90
73137;DHT22;67767;45.636;11.756;2023-05-29T04:10:17;20.90;69.90
73137;DHT22;67767;45.636;11.756;2023-05-29T04:12:43;20.80;70.00
73137;DHT22;67767;45.636;11.756;2023-05-29T04:15:09;20.90;67.00
73137;DHT22;67767;45.636;11.756;2023-05-29T04:17:34;20.90;66.90
73137;DHT22;67767;45.636;11.756;2023-05-29T04:20:00;20.90;66.80
73137;DHT22;67767;45.636;11.756;2023-05-29T04:22:32;21.00;66.90
73137;DHT22;67767;45.636;11.756;2023-05-29T04:24:57;21.00;66.40
73137;DHT22;67767;45.636;11.756;2023-05-29T04:27:23;21.10;66.00
73137;DHT22;67767;45.636;11.756;2023-05-29T04:29:48;21.10;66.10
73137;DHT22;67767;45.636;11.756;2023-05-29T04:32:14;21.20;65.90
73137;DHT22;67767;45.636;11.756;2023-05-29T04:34:40;21.20;65.80
73137;DHT22;67767;45.636;11.756;2023-05-29T04:37:09;21.30;66.10
73137;DHT22;67767;45.636;11.756;2023-05-29T04:39:35;21.30;66.30
73137;DHT22;67767;45.636;11.756;2023-05-29T04:42:00;21.30;66.20
73137;DHT22;67767;45.636;11.756;2023-05-29T04:44:26;21.40;66.10
73137;DHT22;67767;45.636;11.756;2023-05-29T04:46:52;21.50;65.80
73137;DHT22;67767;45.636;11.756;2023-05-29T04:49:18;21.40;65.70
73137;DHT22;67767;45.636;11.756;2023-05-29T04:51:45;21.50;66.10
73137;DHT22;67767;45.636;11.756;2023-05-29T04:54:12;21.40;66.20
73137;DHT22;67767;45.636;11.756;2023-05-29T04:56:38;21.40;66.20
73137;DHT22;67767;45.636;11.756;2023-05-29T04:59:05;21.50;66.30
73137;DHT22;67767;45.636;11.756;2023-05-29T05:01:32;21.70;65.80
73137;DHT22;67767;45.636;11.756;2023-05-29T05:03:59;21.60;66.40
73137;DHT22;67767;45.636;11.756;2023-05-29T05:06:25;21.70;65.80
73137;DHT22;67767;45.636;11.756;2023-05-29T05:08:52;21.70;66.00
73137;DHT22;67767;45.636;11.756;2023-05-29T05:11:19;21.80;65.80
73137;DHT22;67767;45.636;11.756;2023-05-29T05:13:46;21.80;66.10
73137;DHT22;67767;45.636;11.756;2023-05-29T05:16:11;21.80;66.20
73137;DHT22;67767;45.636;11.756;2023-05-29T05:18:38;21.90;66.70
73137;DHT22;67767;45.636;11.756;2023-05-29T05:21:04;22.00;66.10
73137;DHT22;67767;45.636;11.756;2023-05-29T05:23:30;22.00;65.90
73137;DHT22;67767;45.636;11.756;2023-05-29T05:25:55;22.20;65.80
73137;DHT22;67767;45.636;11.756;2023-05-29T05:28:21;22.10;65.40
73137;DHT22;67767;45.636;11.756;2023-05-29T05:30:47;22.40;65.10
73137;DHT22;67767;45.636;11.756;2023-05-29T05:33:12;22.30;65.00
73137;DHT22;67767;45.636;11.756;2023-05-29T05:35:38;22.40;65.00
73137;DHT22;67767;45.636;11.756;2023-05-29T05:38:04;22.60;64.70
73137;DHT22;67767;45.636;11.756;2023-05-29T05:40:30;22.60;64.40
73137;DHT22;67767;45.636;11.756;2023-05-29T05:42:55;22.60;64.40
73137;DHT22;67767;45.636;11.756;2023-05-29T05:45:21;22.90;63.70
73137;DHT22;67767;45.636;11.756;2023-05-29T05:47:47;22.80;63.40
73137;DHT22;67767;45.636;11.756;2023-05-29T05:50:13;22.90;63.70
73137;DHT22;67767;45.636;11.756;2023-05-29T05:52:38;22.90;62.90
73137;DHT22;67767;45.636;11.756;2023-05-29T05:55:04;23.00;63.00
73137;DHT22;67767;45.636;11.756;2023-05-29T05:57:30;23.10;63.20
73137;DHT22;67767;45.636;11.756;2023-05-29T06:00:04;23.10;62.30
73137;DHT22;67767;45.636;11.756;2023-05-29T06:02:37;23.20;62.60
73137;DHT22;67767;45.636;11.756;2023-05-29T06:05:03;23.40;62.30
73137;DHT22;67767;45.636;11.756;2023-05-29T06:07:29;23.50;61.30
73137;DHT22;67767;45.636;11.756;2023-05-29T06:09:55;23.70;59.70
73137;DHT22;67767;45.636;11.756;2023-05-29T06:12:21;23.70;59.80
73137;DHT22;67767;45.636;11.756;2023-05-29T06:14:47;23.80;59.50
73137;DHT22;67767;45.636;11.756;2023-05-29T06:17:12;23.70;59.70
73137;DHT22;67767;45.636;11.756;2023-05-29T06:19:38;23.90;58.10
73137;DHT22;67767;45.636;11.756;2023-05-29T06:22:04;24.10;58.50
73137;DHT22;67767;45.636;11.756;2023-05-29T06:24:30;24.30;57.60
73137;DHT22;67767;45.636;11.756;2023-05-29T06:26:56;24.40;57.50
73137;DHT22;67767;45.636;11.756;2023-05-29T06:29:21;24.20;57.50
73137;DHT22;67767;45.636;11.756;2023-05-29T06:31:47;24.40;57.10
73137;DHT22;67767;45.636;11.756;2023-05-29T06:34:12;24.50;57.20
73137;DHT22;67767;45.636;11.756;2023-05-29T06:36:38;24.60;56.60
73137;DHT22;67767;45.636;11.756;2023-05-29T06:39:05;24.70;55.90
73137;DHT22;67767;45.636;11.756;2023-05-29T06:41:31;24.90;56.00
73137;DHT22;67767;45.636;11.756;2023-05-29T06:43:56;24.90;55.60
73137;DHT22;67767;45.636;11.756;2023-05-29T06:46:22;25.10;55.30
73137;DHT22;67767;45.636;11.756;2023-05-29T06:48:48;25.40;54.60
73137;DHT22;67767;45.636;11.756;2023-05-29T06:51:13;25.30;54.30
73137;DHT22;67767;45.636;11.756;2023-05-29T06:53:39;25.20;54.20
73137;DHT22;67767;45.636;11.756;2023-05-29T06:56:05;25.50;53.60
73137;DHT22;67767;45.636;11.756;2023-05-29T06:58:31;25.70;53.90
73137;DHT22;67767;45.636;11.756;2023-05-29T07:00:58;25.80;53.10
73137;DHT22;67767;45.636;11.756;2023-05-29T07:03:25;26.00;52.50
73137;DHT22;67767;45.636;11.756;2023-05-29T07:05:51;26.20;51.80
73137;DHT22;67767;45.636;11.756;2023-05-29T07:08:17;26.30;51.40
73137;DHT22;67767;45.636;11.756;2023-05-29T07:10:43;26.60;47.70
73137;DHT22;67767;45.636;11.756;2023-05-29T07:13:08;26.30;49.80
73137;DHT22;67767;45.636;11.756;2023-05-29T07:15:34;26.30;50.00
73137;DHT22;67767;45.636;11.756;2023-05-29T07:18:00;26.30;50.40
73137;DHT22;67767;45.636;11.756;2023-05-29T07:20:26;26.50;48.40
73137;DHT22;67767;45.636;11.756;2023-05-29T07:22:51;26.50;47.40
73137;DHT22;67767;45.636;11.756;2023-05-29T07:25:17;26.60;47.30
73137;DHT22;67767;45.636;11.756;2023-05-29T07:27:43;26.80;47.60
73137;DHT22;67767;45.636;11.756;2023-05-29T07:30:09;27.00;47.50
73137;DHT22;67767;45.636;11.756;2023-05-29T07:32:35;27.10;46.40
73137;DHT22;67767;45.636;11.756;2023-05-29T07:35:01;27.30;46.00
73137;DHT22;67767;45.636;11.756;2023-05-29T07:37:26;27.30;44.30
73137;DHT22;67767;45.636;11.756;2023-05-29T07:39:52;27.10;44.60
73137;DHT22;67767;45.636;11.756;2023-05-29T07:42:18;27.30;44.60
73137;DHT22;67767;45.636;11.756;2023-05-29T07:44:44;27.30;44.10
73137;DHT22;67767;45.636;11.756;2023-05-29T07:47:11;27.30;44.90
73137;DHT22;67767;45.636;11.756;2023-05-29T07:49:37;27.20;45.10
73137;DHT22;67767;45.636;11.756;2023-05-29T07:52:03;27.20;45.90
73137;DHT22;67767;45.636;11.756;2023-05-29T07:54:30;27.40;45.40
73137;DHT22;67767;45.636;11.756;2023-05-29T07:57:00;27.50;45.90
73137;DHT22;67767;45.636;11.756;2023-05-29T07:59:29;27.30;46.60
73137;DHT22;67767;45.636;11.756;2023-05-29T08:01:55;27.40;44.90
73137;DHT22;67767;45.636;11.756;2023-05-29T08:04:24;27.60;44.80
73137;DHT22;67767;45.636;11.756;2023-05-29T08:06:50;27.70;45.70
73137;DHT22;67767;45.636;11.756;2023-05-29T08:09:16;27.90;43.90
73137;DHT22;67767;45.636;11.756;2023-05-29T08:11:43;27.90;41.00
73137;DHT22;67767;45.636;11.756;2023-05-29T08:14:12;27.90;40.10
73137;DHT22;67767;45.636;11.756;2023-05-29T08:16:37;27.90;40.50
73137;DHT22;67767;45.636;11.756;2023-05-29T08:19:03;27.90;41.00
73137;DHT22;67767;45.636;11.756;2023-05-29T08:21:30;28.00;39.90
73137;DHT22;67767;45.636;11.756;2023-05-29T08:23:57;28.00;41.20
73137;DHT22;67767;45.636;11.756;2023-05-29T08:26:23;27.90;41.10
73137;DHT22;67767;45.636;11.756;2023-05-29T08:28:49;27.90;40.50
73137;DHT22;67767;45.636;11.756;2023-05-29T08:31:15;27.90;42.20
73137;DHT22;67767;45.636;11.756;2023-05-29T08:33:41;28.00;41.40
73137;DHT22;67767;45.636;11.756;2023-05-29T08:36:07;28.10;41.20
73137;DHT22;67767;45.636;11.756;2023-05-29T08:38:34;28.30;41.70
73137;DHT22;67767;45.636;11.756;2023-05-29T08:41:00;28.10;43.10
73137;DHT22;67767;45.636;11.756;2023-05-29T08:43:31;28.10;43.00
73137;DHT22;67767;45.636;11.756;2023-05-29T08:46:01;28.00;41.70
73137;DHT22;67767;45.636;11.756;2023-05-29T08:48:29;28.10;41.50
73137;DHT22;67767;45.636;11.756;2023-05-29T08:50:57;28.20;41.60
73137;DHT22;67767;45.636;11.756;2023-05-29T08:53:24;28.10;42.40
73137;DHT22;67767;45.636;11.756;2023-05-29T08:55:51;28.20;40.80
73137;DHT22;67767;45.636;11.756;2023-05-29T08:58:21;28.20;40.00
73137;DHT22;67767;45.636;11.756;2023-05-29T09:00:48;28.40;40.30
73137;DHT22;67767;45.636;11.756;2023-05-29T09:03:14;28.40;38.40
73137;DHT22;67767;45.636;11.756;2023-05-29T09:05:40;28.70;40.20
73137;DHT22;67767;45.636;11.756;2023-05-29T09:08:10;28.60;40.30
73137;DHT22;67767;45.636;11.756;2023-05-29T09:10:41;28.50;39.10
73137;DHT22;67767;45.636;11.756;2023-05-29T09:13:09;28.60;38.40
73137;DHT22;67767;45.636;11.756;2023-05-29T09:15:35;28.90;38.80
73137;DHT22;67767;45.636;11.756;2023-05-29T09:18:02;28.80;39.10
73137;DHT22;67767;45.636;11.756;2023-05-29T09:20:29;28.60;38.90
73137;DHT22;67767;45.636;11.756;2023-05-29T09:23:01;28.80;38.50
73137;DHT22;67767;45.636;11.756;2023-05-29T09:25:28;28.80;37.30
73137;DHT22;67767;45.636;11.756;2023-05-29T09:30:39;28.90;38.40
73137;DHT22;67767;45.636;11.756;2023-05-29T09:33:09;29.00;39.90
73137;DHT22;67767;45.636;11.756;2023-05-29T09:35:39;29.00;37.90
73137;DHT22;67767;45.636;11.756;2023-05-29T09:38:06;29.00;39.50
73137;DHT22;67767;45.636;11.756;2023-05-29T09:40:36;29.10;38.40
73137;DHT22;67767;45.636;11.756;2023-05-29T09:45:41;29.10;38.60
73137;DHT22;67767;45.636;11.756;2023-05-29T09:48:17;28.90;37.80
73137;DHT22;67767;45.636;11.756;2023-05-29T09:50:44;28.80;38.50
73137;DHT22;67767;45.636;11.756;2023-05-29T09:53:23;29.00;38.00
73137;DHT22;67767;45.636;11.756;2023-05-29T09:55:51;29.20;36.30
73137;DHT22;67767;45.636;11.756;2023-05-29T09:58:21;29.00;37.60
73137;DHT22;67767;45.636;11.756;2023-05-29T10:00:48;29.20;36.30
73137;DHT22;67767;45.636;11.756;2023-05-29T10:03:14;29.20;35.60
73137;DHT22;67767;45.636;11.756;2023-05-29T10:05:44;29.30;36.70
73137;DHT22;67767;45.636;11.756;2023-05-29T10:08:12;29.50;37.70
73137;DHT22;67767;45.636;11.756;2023-05-29T10:10:44;29.50;36.80
73137;DHT22;67767;45.636;11.756;2023-05-29T10:13:13;29.60;37.10
73137;DHT22;67767;45.636;11.756;2023-05-29T10:15:44;30.00;34.60
73137;DHT22;67767;45.636;11.756;2023-05-29T10:18:22;30.20;36.20
73137;DHT22;67767;45.636;11.756;2023-05-29T10:20:50;29.70;36.80
73137;DHT22;67767;45.636;11.756;2023-05-29T10:23:20;29.70;36.40
73137;DHT22;67767;45.636;11.756;2023-05-29T10:25:50;29.80;35.30
73137;DHT22;67767;45.636;11.756;2023-05-29T10:28:16;29.70;35.10
73137;DHT22;67767;45.636;11.756;2023-05-29T10:30:47;29.90;34.80
73137;DHT22;67767;45.636;11.756;2023-05-29T10:35:55;30.00;34.10
73137;DHT22;67767;45.636;11.756;2023-05-29T10:38:25;30.00;32.70
73137;DHT22;67767;45.636;11.756;2023-05-29T10:40:52;30.30;33.30
73137;DHT22;67767;45.636;11.756;2023-05-29T10:43:34;30.00;32.60
73137;DHT22;67767;45.636;11.756;2023-05-29T10:46:02;30.30;34.40
73137;DHT22;67767;45.636;11.756;2023-05-29T10:48:38;30.40;34.90
73137;DHT22;67767;45.636;11.756;2023-05-29T10:51:06;30.30;33.90
73137;DHT22;67767;45.636;11.756;2023-05-29T10:53:34;30.40;35.20
73137;DHT22;67767;45.636;11.756;2023-05-29T10:56:08;30.50;34.80
73137;DHT22;67767;45.636;11.756;2023-05-29T10:58:34;30.40;33.80
73137;DHT22;67767;45.636;11.756;2023-05-29T11:01:00;30.60;33.90
73137;DHT22;67767;45.636;11.756;2023-05-29T11:03:30;30.50;32.80
73137;DHT22;67767;45.636;11.756;2023-05-29T11:06:07;30.50;32.20
73137;DHT22;67767;45.636;11.756;2023-05-29T11:08:46;30.50;33.10
73137;DHT22;67767;45.636;11.756;2023-05-29T11:11:28;30.60;31.20
73137;DHT22;67767;45.636;11.756;2023-05-29T11:13:56;30.60;32.30
73137;DHT22;67767;45.636;11.756;2023-05-29T11:18:52;30.90;32.70
73137;DHT22;67767;45.636;11.756;2023-05-29T11:23:53;31.10;31.90
73137;DHT22;67767;45.636;11.756;2023-05-29T11:26:23;31.00;31.40
73137;DHT22;67767;45.636;11.756;2023-05-29T11:28:49;31.30;32.60
73137;DHT22;67767;45.636;11.756;2023-05-29T11:31:15;30.70;32.20
73137;DHT22;67767;45.636;11.756;2023-05-29T11:33:47;31.00;33.90
73137;DHT22;67767;45.636;11.756;2023-05-29T11:36:14;31.40;33.40
73137;DHT22;67767;45.636;11.756;2023-05-29T11:38:40;31.70;33.00
73137;DHT22;67767;45.636;11.756;2023-05-29T11:41:06;31.90;30.30
73137;DHT22;67767;45.636;11.756;2023-05-29T11:43:32;32.20;28.90
73137;DHT22;67767;45.636;11.756;2023-05-29T11:45:58;32.50;27.50
73137;DHT22;67767;45.636;11.756;2023-05-29T11:48:24;32.50;27.80
73137;DHT22;67767;45.636;11.756;2023-05-29T11:50:50;32.60;28.40
73137;DHT22;67767;45.636;11.756;2023-05-29T11:53:15;32.90;28.20
73137;DHT22;67767;45.636;11.756;2023-05-29T11:55:41;33.30;27.70
73137;DHT22;67767;45.636;11.756;2023-05-29T11:58:07;33.40;28.60
73137;DHT22;67767;45.636;11.756;2023-05-29T12:00:34;33.40;26.90
73137;DHT22;67767;45.636;11.756;2023-05-29T12:03:01;33.70;25.80
73137;DHT22;67767;45.636;11.756;2023-05-29T12:05:52;33.80;26.10
73137;DHT22;67767;45.636;11.756;2023-05-29T12:08:24;33.90;25.10
73137;DHT22;67767;45.636;11.756;2023-05-29T12:10:51;33.40;26.10
73137;DHT22;67767;45.636;11.756;2023-05-29T12:13:21;33.50;25.90
73137;DHT22;67767;45.636;11.756;2023-05-29T12:15:51;33.30;26.30
73137;DHT22;67767;45.636;11.756;2023-05-29T12:18:17;33.50;26.30
73137;DHT22;67767;45.636;11.756;2023-05-29T12:20:44;33.60;26.00
73137;DHT22;67767;45.636;11.756;2023-05-29T12:23:10;34.00;25.50
73137;DHT22;67767;45.636;11.756;2023-05-29T12:25:37;33.90;25.80
73137;DHT22;67767;45.636;11.756;2023-05-29T12:28:04;34.30;26.00
73137;DHT22;67767;45.636;11.756;2023-05-29T12:30:30;34.40;24.20
73137;DHT22;67767;45.636;11.756;2023-05-29T12:32:56;34.80;24.50
73137;DHT22;67767;45.636;11.756;2023-05-29T12:35:24;34.60;24.40
73137;DHT22;67767;45.636;11.756;2023-05-29T12:40:26;35.50;22.70
73137;DHT22;67767;45.636;11.756;2023-05-29T12:42:57;34.40;23.20
73137;DHT22;67767;45.636;11.756;2023-05-29T12:45:24;35.30;22.00
73137;DHT22;67767;45.636;11.756;2023-05-29T12:47:56;35.20;22.20
73137;DHT22;67767;45.636;11.756;2023-05-29T12:53:10;35.90;24.20
73137;DHT22;67767;45.636;11.756;2023-05-29T12:55:41;35.20;24.00
73137;DHT22;67767;45.636;11.756;2023-05-29T12:58:16;34.90;23.80
73137;DHT22;67767;45.636;11.756;2023-05-29T13:00:43;35.20;23.60
73137;DHT22;67767;45.636;11.756;2023-05-29T13:03:11;35.80;24.30
73137;DHT22;67767;45.636;11.756;2023-05-29T13:05:37;35.00;23.30
73137;DHT22;67767;45.636;11.756;2023-05-29T13:08:03;35.40;24.00
73137;DHT22;67767;45.636;11.756;2023-05-29T13:10:32;35.40;22.60
73137;DHT22;67767;45.636;11.756;2023-05-29T13:12:59;35.30;24.60
73137;DHT22;67767;45.636;11.756;2023-05-29T13:15:25;34.90;23.70
73137;DHT22;67767;45.636;11.756;2023-05-29T13:17:52;35.80;22.90
73137;DHT22;67767;45.636;11.756;2023-05-29T13:20:18;36.50;21.80
73137;DHT22;67767;45.636;11.756;2023-05-29T13:22:45;35.90;22.60
73137;DHT22;67767;45.636;11.756;2023-05-29T13:25:13;35.90;22.20
73137;DHT22;67767;45.636;11.756;2023-05-29T13:27:48;35.80;21.90
73137;DHT22;67767;45.636;11.756;2023-05-29T13:30:14;35.50;22.80
73137;DHT22;67767;45.636;11.756;2023-05-29T13:32:41;34.40;24.70
73137;DHT22;67767;45.636;11.756;2023-05-29T13:35:07;34.40;23.90
73137;DHT22;67767;45.636;11.756;2023-05-29T13:37:33;33.70;24.60
73137;DHT22;67767;45.636;11.756;2023-05-29T13:39:59;33.60;25.90
73137;DHT22;67767;45.636;11.756;2023-05-29T13:42:25;34.40;24.50
73137;DHT22;67767;45.636;11.756;2023-05-29T13:44:51;34.70;23.00
73137;DHT22;67767;45.636;11.756;2023-05-29T13:47:16;35.00;23.30
73137;DHT22;67767;45.636;11.756;2023-05-29T13:49:42;35.40;22.90
73137;DHT22;67767;45.636;11.756;2023-05-29T13:52:08;36.50;22.70
73137;DHT22;67767;45.636;11.756;2023-05-29T13:54:34;36.90;22.90
73137;DHT22;67767;45.636;11.756;2023-05-29T13:57:03;37.10;22.50
73137;DHT22;67767;45.636;11.756;2023-05-29T13:59:33;36.80;21.70
73137;DHT22;67767;45.636;11.756;2023-05-29T14:01:59;36.50;22.10
73137;DHT22;67767;45.636;11.756;2023-05-29T14:04:25;37.00;22.10
73137;DHT22;67767;45.636;11.756;2023-05-29T14:06:52;37.00;21.90
73137;DHT22;67767;45.636;11.756;2023-05-29T14:09:18;36.90;23.00
73137;DHT22;67767;45.636;11.756;2023-05-29T14:11:52;35.90;22.70
73137;DHT22;67767;45.636;11.756;2023-05-29T14:14:17;35.20;23.60
73137;DHT22;67767;45.636;11.756;2023-05-29T14:16:43;35.10;22.60
73137;DHT22;67767;45.636;11.756;2023-05-29T14:19:09;34.90;22.80
73137;DHT22;67767;45.636;11.756;2023-05-29T14:21:34;35.40;23.50
73137;DHT22;67767;45.636;11.756;2023-05-29T14:24:01;35.80;22.90
73137;DHT22;67767;45.636;11.756;2023-05-29T14:26:27;36.40;22.40
73137;DHT22;67767;45.636;11.756;2023-05-29T14:28:52;36.40;22.20
73137;DHT22;67767;45.636;11.756;2023-05-29T14:31:18;35.10;22.70
73137;DHT22;67767;45.636;11.756;2023-05-29T14:33:44;35.20;23.30
73137;DHT22;67767;45.636;11.756;2023-05-29T14:36:09;34.80;23.00
73137;DHT22;67767;45.636;11.756;2023-05-29T14:38:35;34.70;23.30
73137;DHT22;67767;45.636;11.756;2023-05-29T14:41:02;34.20;24.70
73137;DHT22;67767;45.636;11.756;2023-05-29T14:43:27;34.10;25.70
73137;DHT22;67767;45.636;11.756;2023-05-29T14:45:53;33.60;26.20
73137;DHT22;67767;45.636;11.756;2023-05-29T14:48:19;33.20;26.30
73137;DHT22;67767;45.636;11.756;2023-05-29T14:50:45;33.10;26.10
73137;DHT22;67767;45.636;11.756;2023-05-29T14:53:10;33.20;26.50
73137;DHT22;67767;45.636;11.756;2023-05-29T14:55:36;33.00;25.70
73137;DHT22;67767;45.636;11.756;2023-05-29T14:58:03;32.90;26.50
73137;DHT22;67767;45.636;11.756;2023-05-29T15:00:30;33.00;26.80
73137;DHT22;67767;45.636;11.756;2023-05-29T15:02:56;32.90;26.50
73137;DHT22;67767;45.636;11.756;2023-05-29T15:05:25;32.60;28.00
73137;DHT22;67767;45.636;11.756;2023-05-29T15:07:51;32.40;27.90
73137;DHT22;67767;45.636;11.756;2023-05-29T15:10:20;32.20;27.20
73137;DHT22;67767;45.636;11.756;2023-05-29T15:12:46;31.60;30.50
73137;DHT22;67767;45.636;11.756;2023-05-29T15:15:12;31.40;31.90
73137;DHT22;67767;45.636;11.756;2023-05-29T15:17:37;30.90;32.10
73137;DHT22;67767;45.636;11.756;2023-05-29T15:20:05;30.60;32.30
73137;DHT22;67767;45.636;11.756;2023-05-29T15:22:31;30.50;33.00
73137;DHT22;67767;45.636;11.756;2023-05-29T15:24:56;30.30;33.20
73137;DHT22;67767;45.636;11.756;2023-05-29T15:27:22;30.40;33.50
73137;DHT22;67767;45.636;11.756;2023-05-29T15:29:52;30.50;33.90
73137;DHT22;67767;45.636;11.756;2023-05-29T15:32:18;30.20;33.70
73137;DHT22;67767;45.636;11.756;2023-05-29T15:34:43;29.90;34.80
73137;DHT22;67767;45.636;11.756;2023-05-29T15:37:09;29.40;35.30
73137;DHT22;67767;45.636;11.756;2023-05-29T15:39:34;29.50;35.20
73137;DHT22;67767;45.636;11.756;2023-05-29T15:42:00;29.60;35.10